sensor_id;sensor_type;location;lat;lon;timestamp;P1;durP1;ratioP1;P2;durP2;ratioP2
58878;SDS011;44660;42.664;23.266;2024-02-21T00:01:38;6.78;;;3.67;;
58878;SDS011;44660;42.664;23.266;2024-02-21T00:04:03;4.80;;;3.42;;
58878;SDS011;44660;42.664;23.266;2024-02-21T00:06:29;5.07;;;3.42;;
58878;SDS011;44660;42.664;23.266;2024-02-21T00:08:54;4.38;;;3.50;;
58878;SDS011;44660;42.664;23.266;2024-02-21T00:11:20;6.60;;;3.63;;
58878;SDS011;44660;42.664;23.266;2024-02-21T00:13:45;5.78;;;3.80;;
58878;SDS011;44660;42.664;23.266;2024-02-21T00:16:11;5.43;;;3.42;;
58878;SDS011;44660;42.664;23.266;2024-02-21T00:18:36;6.00;;;3.75;;
58878;SDS011;44660;42.664;23.266;2024-02-21T00:21:02;5.35;;;3.60;;
58878;SDS011;44660;42.664;23.266;2024-02-21T00:23:28;8.73;;;4.68;;
58878;SDS011;44660;42.664;23.266;2024-02-21T00:25:57;4.88;;;3.70;;
58878;SDS011;44660;42.664;23.266;2024-02-21T00:28:22;7.28;;;4.10;;
58878;SDS011;44660;42.664;23.266;2024-02-21T00:30:48;4.85;;;3.30;;
58878;SDS011;44660;42.664;23.266;2024-02-21T00:33:15;7.95;;;4.32;;
58878;SDS011;44660;42.664;23.266;2024-02-21T00:35:41;9.27;;;4.47;;
58878;SDS011;44660;42.664;23.266;2024-02-21T00:38:06;8.00;;;4.07;;
58878;SDS011;44660;42.664;23.266;2024-02-21T00:40:32;8.38;;;4.47;;
58878;SDS011;44660;42.664;23.266;2024-02-21T00:42:57;9.55;;;4.85;;
58878;SDS011;44660;42.664;23.266;2024-02-21T00:45:23;10.35;;;4.78;;
58878;SDS011;44660;42.664;23.266;2024-02-21T00:47:48;14.15;;;8.55;;
58878;SDS011;44660;42.664;23.266;2024-02-21T00:50:14;13.95;;;7.28;;
58878;SDS011;44660;42.664;23.266;2024-02-21T00:52:39;28.65;;;15.00;;
58878;SDS011;44660;42.664;23.266;2024-02-21T00:55:05;7.93;;;4.78;;
58878;SDS011;44660;42.664;23.266;2024-02-21T00:57:30;5.78;;;4.07;;
58878;SDS011;44660;42.664;23.266;2024-02-21T00:59:57;6.82;;;4.10;;
58878;SDS011;44660;42.664;23.266;2024-02-21T01:02:22;5.95;;;4.05;;
58878;SDS011;44660;42.664;23.266;2024-02-21T01:04:48;7.32;;;4.35;;
58878;SDS011;44660;42.664;23.266;2024-02-21T01:07:13;6.80;;;4.50;;
58878;SDS011;44660;42.664;23.266;2024-02-21T01:09:38;10.02;;;5.63;;
58878;SDS011;44660;42.664;23.266;2024-02-21T01:12:04;6.68;;;4.50;;
58878;SDS011;44660;42.664;23.266;2024-02-21T01:14:30;7.35;;;4.10;;
58878;SDS011;44660;42.664;23.266;2024-02-21T01:16:55;6.85;;;4.35;;
58878;SDS011;44660;42.664;23.266;2024-02-21T01:19:21;5.53;;;3.78;;
58878;SDS011;44660;42.664;23.266;2024-02-21T01:21:46;4.85;;;3.28;;
58878;SDS011;44660;42.664;23.266;2024-02-21T01:24:11;4.32;;;3.10;;
58878;SDS011;44660;42.664;23.266;2024-02-21T01:26:37;6.03;;;3.72;;
58878;SDS011;44660;42.664;23.266;2024-02-21T01:29:02;5.20;;;3.67;;
58878;SDS011;44660;42.664;23.266;2024-02-21T01:31:28;6.43;;;3.90;;
58878;SDS011;44660;42.664;23.266;2024-02-21T01:33:53;6.57;;;4.20;;
58878;SDS011;44660;42.664;23.266;2024-02-21T01:36:18;6.57;;;4.32;;
58878;SDS011;44660;42.664;23.266;2024-02-21T01:38:44;7.25;;;4.55;;
58878;SDS011;44660;42.664;23.266;2024-02-21T01:41:09;8.63;;;4.85;;
58878;SDS011;44660;42.664;23.266;2024-02-21T01:43:34;8.40;;;5.22;;
58878;SDS011;44660;42.664;23.266;2024-02-21T01:46:00;8.07;;;5.40;;
58878;SDS011;44660;42.664;23.266;2024-02-21T01:48:26;10.10;;;5.72;;
58878;SDS011;44660;42.664;23.266;2024-02-21T01:50:52;10.70;;;5.97;;
58878;SDS011;44660;42.664;23.266;2024-02-21T01:53:20;9.52;;;6.43;;
58878;SDS011;44660;42.664;23.266;2024-02-21T01:55:48;8.73;;;6.18;;
58878;SDS011;44660;42.664;23.266;2024-02-21T01:58:13;11.05;;;6.93;;
58878;SDS011;44660;42.664;23.266;2024-02-21T02:00:41;10.73;;;6.97;;
58878;SDS011;44660;42.664;23.266;2024-02-21T02:03:11;10.77;;;7.07;;
58878;SDS011;44660;42.664;23.266;2024-02-21T02:05:46;12.43;;;7.30;;
58878;SDS011;44660;42.664;23.266;2024-02-21T02:08:13;11.80;;;7.47;;
58878;SDS011;44660;42.664;23.266;2024-02-21T02:10:42;10.80;;;7.03;;
58878;SDS011;44660;42.664;23.266;2024-02-21T02:13:08;10.50;;;6.90;;
58878;SDS011;44660;42.664;23.266;2024-02-21T02:15:41;13.35;;;8.07;;
58878;SDS011;44660;42.664;23.266;2024-02-21T02:18:08;11.48;;;7.22;;
58878;SDS011;44660;42.664;23.266;2024-02-21T02:20:34;12.88;;;8.20;;
58878;SDS011;44660;42.664;23.266;2024-02-21T02:23:00;13.65;;;8.52;;
58878;SDS011;44660;42.664;23.266;2024-02-21T02:25:37;13.45;;;7.72;;
58878;SDS011;44660;42.664;23.266;2024-02-21T02:28:04;13.93;;;8.05;;
58878;SDS011;44660;42.664;23.266;2024-02-21T02:30:33;14.35;;;9.02;;
58878;SDS011;44660;42.664;23.266;2024-02-21T02:33:01;13.15;;;8.90;;
58878;SDS011;44660;42.664;23.266;2024-02-21T02:35:27;17.80;;;9.63;;
58878;SDS011;44660;42.664;23.266;2024-02-21T02:37:52;13.25;;;8.27;;
58878;SDS011;44660;42.664;23.266;2024-02-21T02:40:18;13.88;;;8.18;;
58878;SDS011;44660;42.664;23.266;2024-02-21T02:42:44;14.13;;;8.15;;
58878;SDS011;44660;42.664;23.266;2024-02-21T02:45:12;14.32;;;8.88;;
58878;SDS011;44660;42.664;23.266;2024-02-21T02:47:39;13.48;;;8.73;;
58878;SDS011;44660;42.664;23.266;2024-02-21T02:50:05;13.25;;;8.32;;
58878;SDS011;44660;42.664;23.266;2024-02-21T02:52:31;16.15;;;8.93;;
58878;SDS011;44660;42.664;23.266;2024-02-21T02:54:56;13.70;;;8.85;;
58878;SDS011;44660;42.664;23.266;2024-02-21T02:57:21;15.05;;;8.52;;
58878;SDS011;44660;42.664;23.266;2024-02-21T02:59:50;13.30;;;8.23;;
58878;SDS011;44660;42.664;23.266;2024-02-21T03:02:16;12.85;;;8.35;;
58878;SDS011;44660;42.664;23.266;2024-02-21T03:04:42;12.52;;;7.75;;
58878;SDS011;44660;42.664;23.266;2024-02-21T03:07:08;12.18;;;8.13;;
58878;SDS011;44660;42.664;23.266;2024-02-21T03:09:33;13.55;;;8.98;;
58878;SDS011;44660;42.664;23.266;2024-02-21T03:11:59;15.93;;;9.18;;
58878;SDS011;44660;42.664;23.266;2024-02-21T03:14:30;13.35;;;8.50;;
58878;SDS011;44660;42.664;23.266;2024-02-21T03:16:57;13.82;;;8.82;;
58878;SDS011;44660;42.664;23.266;2024-02-21T03:19:24;12.45;;;8.50;;
58878;SDS011;44660;42.664;23.266;2024-02-21T03:22:08;13.10;;;8.60;;
58878;SDS011;44660;42.664;23.266;2024-02-21T03:24:34;15.15;;;8.95;;
58878;SDS011;44660;42.664;23.266;2024-02-21T03:26:59;19.67;;;10.35;;
58878;SDS011;44660;42.664;23.266;2024-02-21T03:29:25;16.63;;;9.38;;
58878;SDS011;44660;42.664;23.266;2024-02-21T03:31:55;17.33;;;10.18;;
58878;SDS011;44660;42.664;23.266;2024-02-21T03:34:20;15.93;;;9.23;;
58878;SDS011;44660;42.664;23.266;2024-02-21T03:36:46;15.45;;;9.10;;
58878;SDS011;44660;42.664;23.266;2024-02-21T03:39:11;15.73;;;9.43;;
58878;SDS011;44660;42.664;23.266;2024-02-21T03:41:36;15.77;;;9.05;;
58878;SDS011;44660;42.664;23.266;2024-02-21T03:44:02;13.70;;;8.88;;
58878;SDS011;44660;42.664;23.266;2024-02-21T03:46:27;13.65;;;8.77;;
58878;SDS011;44660;42.664;23.266;2024-02-21T03:48:53;14.18;;;9.05;;
58878;SDS011;44660;42.664;23.266;2024-02-21T03:51:18;15.15;;;10.27;;
58878;SDS011;44660;42.664;23.266;2024-02-21T03:53:44;14.52;;;8.98;;
58878;SDS011;44660;42.664;23.266;2024-02-21T03:56:09;15.88;;;10.23;;
58878;SDS011;44660;42.664;23.266;2024-02-21T03:58:35;13.45;;;9.07;;
58878;SDS011;44660;42.664;23.266;2024-02-21T04:01:00;16.23;;;9.68;;
58878;SDS011;44660;42.664;23.266;2024-02-21T04:03:26;16.55;;;10.75;;
58878;SDS011;44660;42.664;23.266;2024-02-21T04:05:52;16.45;;;9.95;;
58878;SDS011;44660;42.664;23.266;2024-02-21T04:08:17;17.92;;;10.07;;
58878;SDS011;44660;42.664;23.266;2024-02-21T04:10:43;17.13;;;10.40;;
58878;SDS011;44660;42.664;23.266;2024-02-21T04:13:08;20.88;;;10.63;;
58878;SDS011;44660;42.664;23.266;2024-02-21T04:15:34;15.30;;;10.50;;
58878;SDS011;44660;42.664;23.266;2024-02-21T04:18:00;18.13;;;10.68;;
58878;SDS011;44660;42.664;23.266;2024-02-21T04:20:25;17.13;;;10.27;;
58878;SDS011;44660;42.664;23.266;2024-02-21T04:22:50;14.35;;;9.70;;
58878;SDS011;44660;42.664;23.266;2024-02-21T04:25:16;16.23;;;9.95;;
58878;SDS011;44660;42.664;23.266;2024-02-21T04:27:41;16.50;;;10.45;;
58878;SDS011;44660;42.664;23.266;2024-02-21T04:30:07;15.73;;;10.18;;
58878;SDS011;44660;42.664;23.266;2024-02-21T04:32:33;17.80;;;10.60;;
58878;SDS011;44660;42.664;23.266;2024-02-21T04:34:58;15.02;;;9.70;;
58878;SDS011;44660;42.664;23.266;2024-02-21T04:37:24;16.95;;;10.07;;
58878;SDS011;44660;42.664;23.266;2024-02-21T04:39:50;16.27;;;9.85;;
58878;SDS011;44660;42.664;23.266;2024-02-21T04:42:16;17.00;;;11.07;;
58878;SDS011;44660;42.664;23.266;2024-02-21T04:44:41;18.45;;;11.07;;
58878;SDS011;44660;42.664;23.266;2024-02-21T04:47:07;18.70;;;10.35;;
58878;SDS011;44660;42.664;23.266;2024-02-21T04:49:33;18.65;;;11.00;;
58878;SDS011;44660;42.664;23.266;2024-02-21T04:51:58;15.68;;;10.80;;
58878;SDS011;44660;42.664;23.266;2024-02-21T04:54:24;17.73;;;11.60;;
58878;SDS011;44660;42.664;23.266;2024-02-21T04:56:50;19.70;;;10.27;;
58878;SDS011;44660;42.664;23.266;2024-02-21T04:59:15;15.75;;;10.10;;
58878;SDS011;44660;42.664;23.266;2024-02-21T05:01:41;16.92;;;10.52;;
58878;SDS011;44660;42.664;23.266;2024-02-21T05:04:06;18.60;;;11.02;;
58878;SDS011;44660;42.664;23.266;2024-02-21T05:06:32;16.33;;;11.15;;
58878;SDS011;44660;42.664;23.266;2024-02-21T05:09:01;18.30;;;11.48;;
58878;SDS011;44660;42.664;23.266;2024-02-21T05:11:27;16.83;;;10.73;;
58878;SDS011;44660;42.664;23.266;2024-02-21T05:13:52;39.53;;;21.50;;
58878;SDS011;44660;42.664;23.266;2024-02-21T05:16:18;21.33;;;12.60;;
58878;SDS011;44660;42.664;23.266;2024-02-21T05:18:44;18.00;;;11.13;;
58878;SDS011;44660;42.664;23.266;2024-02-21T05:21:10;22.88;;;12.48;;
58878;SDS011;44660;42.664;23.266;2024-02-21T05:23:35;26.27;;;15.23;;
58878;SDS011;44660;42.664;23.266;2024-02-21T05:26:01;22.13;;;13.48;;
58878;SDS011;44660;42.664;23.266;2024-02-21T05:28:26;17.23;;;10.70;;
58878;SDS011;44660;42.664;23.266;2024-02-21T05:30:52;22.60;;;12.40;;
58878;SDS011;44660;42.664;23.266;2024-02-21T05:33:17;22.35;;;12.50;;
58878;SDS011;44660;42.664;23.266;2024-02-21T05:35:46;27.67;;;15.98;;
58878;SDS011;44660;42.664;23.266;2024-02-21T05:38:13;19.45;;;12.00;;
58878;SDS011;44660;42.664;23.266;2024-02-21T05:40:39;15.85;;;9.82;;
58878;SDS011;44660;42.664;23.266;2024-02-21T05:43:04;16.63;;;9.88;;
58878;SDS011;44660;42.664;23.266;2024-02-21T05:45:30;16.00;;;9.82;;
58878;SDS011;44660;42.664;23.266;2024-02-21T05:47:55;15.73;;;9.55;;
58878;SDS011;44660;42.664;23.266;2024-02-21T05:50:22;15.13;;;9.70;;
58878;SDS011;44660;42.664;23.266;2024-02-21T05:52:48;14.95;;;9.55;;
58878;SDS011;44660;42.664;23.266;2024-02-21T05:55:16;16.95;;;10.35;;
58878;SDS011;44660;42.664;23.266;2024-02-21T05:57:41;16.48;;;9.88;;
58878;SDS011;44660;42.664;23.266;2024-02-21T06:00:07;15.48;;;9.32;;
58878;SDS011;44660;42.664;23.266;2024-02-21T06:02:33;14.07;;;8.88;;
58878;SDS011;44660;42.664;23.266;2024-02-21T06:04:58;15.57;;;9.68;;
58878;SDS011;44660;42.664;23.266;2024-02-21T06:07:24;16.00;;;9.60;;
58878;SDS011;44660;42.664;23.266;2024-02-21T06:09:49;15.02;;;9.15;;
58878;SDS011;44660;42.664;23.266;2024-02-21T06:12:15;16.05;;;9.40;;
58878;SDS011;44660;42.664;23.266;2024-02-21T06:14:40;16.05;;;9.93;;
58878;SDS011;44660;42.664;23.266;2024-02-21T06:17:05;15.63;;;9.35;;
58878;SDS011;44660;42.664;23.266;2024-02-21T06:19:31;16.88;;;10.40;;
58878;SDS011;44660;42.664;23.266;2024-02-21T06:21:56;21.58;;;10.23;;
58878;SDS011;44660;42.664;23.266;2024-02-21T06:24:22;17.73;;;10.32;;
58878;SDS011;44660;42.664;23.266;2024-02-21T06:26:47;17.42;;;9.65;;
58878;SDS011;44660;42.664;23.266;2024-02-21T06:29:12;18.95;;;10.30;;
58878;SDS011;44660;42.664;23.266;2024-02-21T06:31:38;17.13;;;10.18;;
58878;SDS011;44660;42.664;23.266;2024-02-21T06:34:05;16.10;;;9.85;;
58878;SDS011;44660;42.664;23.266;2024-02-21T06:36:30;16.05;;;9.98;;
58878;SDS011;44660;42.664;23.266;2024-02-21T06:38:55;17.95;;;9.93;;
58878;SDS011;44660;42.664;23.266;2024-02-21T06:41:21;19.45;;;10.43;;
58878;SDS011;44660;42.664;23.266;2024-02-21T06:43:46;21.20;;;11.80;;
58878;SDS011;44660;42.664;23.266;2024-02-21T06:46:22;18.88;;;11.38;;
58878;SDS011;44660;42.664;23.266;2024-02-21T06:48:53;22.02;;;12.65;;
58878;SDS011;44660;42.664;23.266;2024-02-21T06:51:21;21.38;;;12.98;;
58878;SDS011;44660;42.664;23.266;2024-02-21T06:53:47;23.08;;;13.50;;
58878;SDS011;44660;42.664;23.266;2024-02-21T06:56:13;18.50;;;11.77;;
58878;SDS011;44660;42.664;23.266;2024-02-21T06:58:38;20.27;;;11.40;;
58878;SDS011;44660;42.664;23.266;2024-02-21T07:01:03;16.92;;;9.65;;
58878;SDS011;44660;42.664;23.266;2024-02-21T07:03:29;17.45;;;10.48;;
58878;SDS011;44660;42.664;23.266;2024-02-21T07:05:54;20.35;;;12.38;;
58878;SDS011;44660;42.664;23.266;2024-02-21T07:08:20;24.00;;;13.95;;
58878;SDS011;44660;42.664;23.266;2024-02-21T07:10:46;21.52;;;12.50;;
58878;SDS011;44660;42.664;23.266;2024-02-21T07:13:12;29.55;;;14.73;;
58878;SDS011;44660;42.664;23.266;2024-02-21T07:15:38;18.15;;;11.10;;
58878;SDS011;44660;42.664;23.266;2024-02-21T07:18:03;19.52;;;10.63;;
58878;SDS011;44660;42.664;23.266;2024-02-21T07:20:29;20.02;;;11.10;;
58878;SDS011;44660;42.664;23.266;2024-02-21T07:22:55;20.80;;;10.93;;
58878;SDS011;44660;42.664;23.266;2024-02-21T07:25:20;20.13;;;11.05;;
58878;SDS011;44660;42.664;23.266;2024-02-21T07:27:45;18.67;;;10.70;;
58878;SDS011;44660;42.664;23.266;2024-02-21T07:30:11;19.88;;;11.00;;
58878;SDS011;44660;42.664;23.266;2024-02-21T07:32:37;19.85;;;11.48;;
58878;SDS011;44660;42.664;23.266;2024-02-21T07:35:02;18.50;;;11.15;;
58878;SDS011;44660;42.664;23.266;2024-02-21T07:37:28;23.58;;;12.30;;
58878;SDS011;44660;42.664;23.266;2024-02-21T07:39:53;18.05;;;11.25;;
58878;SDS011;44660;42.664;23.266;2024-02-21T07:42:19;20.83;;;12.50;;
58878;SDS011;44660;42.664;23.266;2024-02-21T07:44:45;20.73;;;11.48;;
58878;SDS011;44660;42.664;23.266;2024-02-21T07:47:10;22.98;;;12.23;;
58878;SDS011;44660;42.664;23.266;2024-02-21T07:49:43;22.58;;;12.55;;
58878;SDS011;44660;42.664;23.266;2024-02-21T07:52:09;20.05;;;11.35;;
58878;SDS011;44660;42.664;23.266;2024-02-21T07:54:35;19.33;;;11.52;;
58878;SDS011;44660;42.664;23.266;2024-02-21T07:57:00;18.92;;;11.00;;
58878;SDS011;44660;42.664;23.266;2024-02-21T07:59:26;18.38;;;11.15;;
58878;SDS011;44660;42.664;23.266;2024-02-21T08:01:51;18.42;;;11.27;;
58878;SDS011;44660;42.664;23.266;2024-02-21T08:04:17;18.25;;;12.10;;
58878;SDS011;44660;42.664;23.266;2024-02-21T08:06:42;23.40;;;12.13;;
58878;SDS011;44660;42.664;23.266;2024-02-21T08:09:10;17.33;;;11.48;;
58878;SDS011;44660;42.664;23.266;2024-02-21T08:11:35;21.77;;;11.85;;
58878;SDS011;44660;42.664;23.266;2024-02-21T08:14:00;16.77;;;10.75;;
58878;SDS011;44660;42.664;23.266;2024-02-21T08:16:26;18.45;;;11.15;;
58878;SDS011;44660;42.664;23.266;2024-02-21T08:18:51;18.35;;;12.05;;
58878;SDS011;44660;42.664;23.266;2024-02-21T08:21:17;14.82;;;9.63;;
58878;SDS011;44660;42.664;23.266;2024-02-21T08:23:42;15.35;;;10.68;;
58878;SDS011;44660;42.664;23.266;2024-02-21T08:26:08;17.17;;;10.43;;
58878;SDS011;44660;42.664;23.266;2024-02-21T08:28:33;18.98;;;10.02;;
58878;SDS011;44660;42.664;23.266;2024-02-21T08:30:59;15.95;;;10.35;;
58878;SDS011;44660;42.664;23.266;2024-02-21T08:33:24;14.68;;;9.93;;
58878;SDS011;44660;42.664;23.266;2024-02-21T08:35:50;17.35;;;9.82;;
58878;SDS011;44660;42.664;23.266;2024-02-21T08:38:16;15.23;;;10.25;;
58878;SDS011;44660;42.664;23.266;2024-02-21T08:40:42;16.38;;;9.00;;
58878;SDS011;44660;42.664;23.266;2024-02-21T08:43:07;13.57;;;8.38;;
58878;SDS011;44660;42.664;23.266;2024-02-21T08:45:33;13.80;;;8.68;;
58878;SDS011;44660;42.664;23.266;2024-02-21T08:47:58;13.10;;;8.48;;
58878;SDS011;44660;42.664;23.266;2024-02-21T08:50:24;14.43;;;9.07;;
58878;SDS011;44660;42.664;23.266;2024-02-21T08:52:49;12.00;;;8.48;;
58878;SDS011;44660;42.664;23.266;2024-02-21T08:55:15;14.35;;;8.75;;
58878;SDS011;44660;42.664;23.266;2024-02-21T08:57:40;10.07;;;7.85;;
58878;SDS011;44660;42.664;23.266;2024-02-21T09:00:06;12.35;;;8.55;;
58878;SDS011;44660;42.664;23.266;2024-02-21T09:02:39;14.25;;;9.43;;
58878;SDS011;44660;42.664;23.266;2024-02-21T09:05:05;12.40;;;8.73;;
58878;SDS011;44660;42.664;23.266;2024-02-21T09:07:31;15.50;;;9.15;;
58878;SDS011;44660;42.664;23.266;2024-02-21T09:09:57;12.23;;;8.95;;
58878;SDS011;44660;42.664;23.266;2024-02-21T09:12:22;15.85;;;10.07;;
58878;SDS011;44660;42.664;23.266;2024-02-21T09:14:47;12.38;;;8.82;;
58878;SDS011;44660;42.664;23.266;2024-02-21T09:17:15;11.25;;;8.65;;
58878;SDS011;44660;42.664;23.266;2024-02-21T09:19:42;13.77;;;9.45;;
58878;SDS011;44660;42.664;23.266;2024-02-21T09:22:08;13.07;;;9.27;;
58878;SDS011;44660;42.664;23.266;2024-02-21T09:24:33;13.07;;;8.98;;
58878;SDS011;44660;42.664;23.266;2024-02-21T09:26:58;13.27;;;8.60;;
58878;SDS011;44660;42.664;23.266;2024-02-21T09:29:25;12.45;;;8.63;;
58878;SDS011;44660;42.664;23.266;2024-02-21T09:31:50;12.20;;;8.50;;
58878;SDS011;44660;42.664;23.266;2024-02-21T09:34:17;11.73;;;7.95;;
58878;SDS011;44660;42.664;23.266;2024-02-21T09:36:42;12.05;;;8.77;;
58878;SDS011;44660;42.664;23.266;2024-02-21T09:39:08;13.10;;;9.00;;
58878;SDS011;44660;42.664;23.266;2024-02-21T09:41:36;11.80;;;8.10;;
58878;SDS011;44660;42.664;23.266;2024-02-21T09:44:07;13.90;;;8.95;;
58878;SDS011;44660;42.664;23.266;2024-02-21T09:46:42;17.55;;;10.98;;
58878;SDS011;44660;42.664;23.266;2024-02-21T09:52:07;11.75;;;8.48;;
58878;SDS011;44660;42.664;23.266;2024-02-21T09:54:33;11.25;;;9.02;;
58878;SDS011;44660;42.664;23.266;2024-02-21T09:56:59;11.00;;;8.32;;
58878;SDS011;44660;42.664;23.266;2024-02-21T09:59:30;9.05;;;7.35;;
58878;SDS011;44660;42.664;23.266;2024-02-21T10:01:57;11.02;;;7.97;;
58878;SDS011;44660;42.664;23.266;2024-02-21T10:04:25;11.70;;;7.45;;
58878;SDS011;44660;42.664;23.266;2024-02-21T10:06:51;8.45;;;6.28;;
58878;SDS011;44660;42.664;23.266;2024-02-21T10:09:20;9.20;;;6.70;;
58878;SDS011;44660;42.664;23.266;2024-02-21T10:11:55;9.02;;;7.13;;
58878;SDS011;44660;42.664;23.266;2024-02-21T10:14:32;8.60;;;6.72;;
58878;SDS011;44660;42.664;23.266;2024-02-21T10:16:57;9.35;;;6.97;;
58878;SDS011;44660;42.664;23.266;2024-02-21T10:19:27;8.95;;;6.80;;
58878;SDS011;44660;42.664;23.266;2024-02-21T10:21:59;9.32;;;6.97;;
58878;SDS011;44660;42.664;23.266;2024-02-21T10:24:29;9.13;;;6.85;;
58878;SDS011;44660;42.664;23.266;2024-02-21T10:26:59;8.95;;;6.97;;
58878;SDS011;44660;42.664;23.266;2024-02-21T10:29:28;8.25;;;6.35;;
58878;SDS011;44660;42.664;23.266;2024-02-21T10:32:03;7.55;;;6.00;;
58878;SDS011;44660;42.664;23.266;2024-02-21T10:34:30;8.18;;;6.40;;
58878;SDS011;44660;42.664;23.266;2024-02-21T10:37:05;9.00;;;6.68;;
58878;SDS011;44660;42.664;23.266;2024-02-21T10:39:32;10.18;;;6.47;;
58878;SDS011;44660;42.664;23.266;2024-02-21T10:41:59;8.13;;;5.93;;
58878;SDS011;44660;42.664;23.266;2024-02-21T10:44:28;11.00;;;5.78;;
58878;SDS011;44660;42.664;23.266;2024-02-21T10:46:55;7.63;;;5.88;;
58878;SDS011;44660;42.664;23.266;2024-02-21T10:49:25;7.93;;;5.78;;
58878;SDS011;44660;42.664;23.266;2024-02-21T10:52:01;6.75;;;5.30;;
58878;SDS011;44660;42.664;23.266;2024-02-21T10:57:12;5.25;;;4.75;;
58878;SDS011;44660;42.664;23.266;2024-02-21T10:59:39;5.65;;;4.93;;
58878;SDS011;44660;42.664;23.266;2024-02-21T11:02:05;6.20;;;4.50;;
58878;SDS011;44660;42.664;23.266;2024-02-21T11:04:31;12.90;;;4.88;;
58878;SDS011;44660;42.664;23.266;2024-02-21T11:07:01;5.82;;;4.60;;
58878;SDS011;44660;42.664;23.266;2024-02-21T11:09:32;4.60;;;3.95;;
58878;SDS011;44660;42.664;23.266;2024-02-21T11:11:58;5.45;;;4.35;;
58878;SDS011;44660;42.664;23.266;2024-02-21T11:14:27;4.78;;;4.32;;
58878;SDS011;44660;42.664;23.266;2024-02-21T11:16:53;10.25;;;4.68;;
58878;SDS011;44660;42.664;23.266;2024-02-21T11:21:47;7.63;;;5.43;;
58878;SDS011;44660;42.664;23.266;2024-02-21T11:24:13;6.07;;;4.60;;
58878;SDS011;44660;42.664;23.266;2024-02-21T11:26:39;5.22;;;4.40;;
58878;SDS011;44660;42.664;23.266;2024-02-21T11:29:07;6.07;;;4.38;;
58878;SDS011;44660;42.664;23.266;2024-02-21T11:31:41;4.82;;;4.05;;
58878;SDS011;44660;42.664;23.266;2024-02-21T11:34:11;7.50;;;4.63;;
58878;SDS011;44660;42.664;23.266;2024-02-21T11:36:46;5.47;;;4.20;;
58878;SDS011;44660;42.664;23.266;2024-02-21T11:39:17;5.75;;;4.60;;
58878;SDS011;44660;42.664;23.266;2024-02-21T11:41:44;6.97;;;4.90;;
58878;SDS011;44660;42.664;23.266;2024-02-21T11:44:09;6.88;;;4.82;;
58878;SDS011;44660;42.664;23.266;2024-02-21T11:46:34;8.57;;;6.00;;
58878;SDS011;44660;42.664;23.266;2024-02-21T11:49:00;14.55;;;5.95;;
58878;SDS011;44660;42.664;23.266;2024-02-21T11:51:28;6.28;;;4.78;;
58878;SDS011;44660;42.664;23.266;2024-02-21T11:53:53;9.35;;;5.55;;
58878;SDS011;44660;42.664;23.266;2024-02-21T11:56:19;8.48;;;4.82;;
58878;SDS011;44660;42.664;23.266;2024-02-21T11:58:48;6.50;;;4.10;;
58878;SDS011;44660;42.664;23.266;2024-02-21T12:01:14;6.10;;;4.57;;
58878;SDS011;44660;42.664;23.266;2024-02-21T12:03:40;4.85;;;4.28;;
58878;SDS011;44660;42.664;23.266;2024-02-21T12:06:06;9.25;;;6.00;;
58878;SDS011;44660;42.664;23.266;2024-02-21T12:08:42;13.68;;;7.35;;
58878;SDS011;44660;42.664;23.266;2024-02-21T12:11:20;52.08;;;23.95;;
58878;SDS011;44660;42.664;23.266;2024-02-21T12:13:47;40.15;;;17.15;;
58878;SDS011;44660;42.664;23.266;2024-02-21T12:16:23;14.63;;;7.57;;
58878;SDS011;44660;42.664;23.266;2024-02-21T12:18:48;10.02;;;6.18;;
58878;SDS011;44660;42.664;23.266;2024-02-21T12:21:14;11.02;;;6.35;;
58878;SDS011;44660;42.664;23.266;2024-02-21T12:23:40;10.93;;;6.30;;
58878;SDS011;44660;42.664;23.266;2024-02-21T12:26:06;7.40;;;4.90;;
58878;SDS011;44660;42.664;23.266;2024-02-21T12:28:33;8.00;;;4.50;;
58878;SDS011;44660;42.664;23.266;2024-02-21T12:30:58;6.72;;;4.30;;
58878;SDS011;44660;42.664;23.266;2024-02-21T12:33:23;6.55;;;4.57;;
58878;SDS011;44660;42.664;23.266;2024-02-21T12:35:49;9.23;;;4.85;;
58878;SDS011;44660;42.664;23.266;2024-02-21T12:38:15;10.57;;;5.55;;
58878;SDS011;44660;42.664;23.266;2024-02-21T12:40:40;10.57;;;5.70;;
58878;SDS011;44660;42.664;23.266;2024-02-21T12:43:05;10.90;;;5.88;;
58878;SDS011;44660;42.664;23.266;2024-02-21T12:45:31;12.35;;;7.65;;
58878;SDS011;44660;42.664;23.266;2024-02-21T12:47:57;17.38;;;9.02;;
58878;SDS011;44660;42.664;23.266;2024-02-21T12:50:23;10.98;;;7.10;;
58878;SDS011;44660;42.664;23.266;2024-02-21T12:52:48;9.43;;;6.00;;
58878;SDS011;44660;42.664;23.266;2024-02-21T12:55:15;10.43;;;6.90;;
58878;SDS011;44660;42.664;23.266;2024-02-21T12:57:41;10.43;;;5.47;;
58878;SDS011;44660;42.664;23.266;2024-02-21T13:00:07;11.13;;;5.65;;
58878;SDS011;44660;42.664;23.266;2024-02-21T13:02:34;9.63;;;6.22;;
58878;SDS011;44660;42.664;23.266;2024-02-21T13:05:00;12.77;;;7.07;;
58878;SDS011;44660;42.664;23.266;2024-02-21T13:07:27;13.57;;;9.00;;
58878;SDS011;44660;42.664;23.266;2024-02-21T13:09:53;17.25;;;9.45;;
58878;SDS011;44660;42.664;23.266;2024-02-21T13:12:19;13.02;;;6.78;;
58878;SDS011;44660;42.664;23.266;2024-02-21T13:14:44;8.05;;;5.72;;
58878;SDS011;44660;42.664;23.266;2024-02-21T13:17:10;8.55;;;5.47;;
58878;SDS011;44660;42.664;23.266;2024-02-21T13:19:35;7.88;;;5.68;;
58878;SDS011;44660;42.664;23.266;2024-02-21T13:22:00;8.65;;;5.88;;
58878;SDS011;44660;42.664;23.266;2024-02-21T13:24:27;8.55;;;6.00;;
58878;SDS011;44660;42.664;23.266;2024-02-21T13:26:52;9.98;;;6.10;;
58878;SDS011;44660;42.664;23.266;2024-02-21T13:29:18;8.68;;;5.97;;
58878;SDS011;44660;42.664;23.266;2024-02-21T13:31:44;11.15;;;5.65;;
58878;SDS011;44660;42.664;23.266;2024-02-21T13:34:09;9.38;;;6.13;;
58878;SDS011;44660;42.664;23.266;2024-02-21T13:36:35;8.65;;;5.82;;
58878;SDS011;44660;42.664;23.266;2024-02-21T13:39:00;8.40;;;5.80;;
58878;SDS011;44660;42.664;23.266;2024-02-21T13:41:25;9.88;;;6.38;;
58878;SDS011;44660;42.664;23.266;2024-02-21T13:43:51;9.45;;;5.22;;
58878;SDS011;44660;42.664;23.266;2024-02-21T13:46:17;7.95;;;5.45;;
58878;SDS011;44660;42.664;23.266;2024-02-21T13:48:42;9.88;;;5.65;;
58878;SDS011;44660;42.664;23.266;2024-02-21T13:51:08;8.48;;;5.22;;
58878;SDS011;44660;42.664;23.266;2024-02-21T13:53:34;8.40;;;5.22;;
58878;SDS011;44660;42.664;23.266;2024-02-21T13:55:59;6.85;;;4.65;;
58878;SDS011;44660;42.664;23.266;2024-02-21T13:58:25;10.90;;;5.22;;
58878;SDS011;44660;42.664;23.266;2024-02-21T14:00:51;10.73;;;5.35;;
58878;SDS011;44660;42.664;23.266;2024-02-21T14:03:17;21.58;;;12.57;;
58878;SDS011;44660;42.664;23.266;2024-02-21T14:05:44;11.70;;;6.15;;
58878;SDS011;44660;42.664;23.266;2024-02-21T14:08:10;9.63;;;5.68;;
58878;SDS011;44660;42.664;23.266;2024-02-21T14:10:35;8.93;;;5.90;;
58878;SDS011;44660;42.664;23.266;2024-02-21T14:15:30;8.52;;;5.63;;
58878;SDS011;44660;42.664;23.266;2024-02-21T14:17:56;10.32;;;6.13;;
58878;SDS011;44660;42.664;23.266;2024-02-21T14:20:21;9.32;;;4.85;;
58878;SDS011;44660;42.664;23.266;2024-02-21T14:22:47;10.32;;;5.20;;
58878;SDS011;44660;42.664;23.266;2024-02-21T14:25:12;9.60;;;5.50;;
58878;SDS011;44660;42.664;23.266;2024-02-21T14:27:38;7.28;;;4.68;;